Ambler, AK

10:10 AM AKDT on September 21, 2014 (GMT -0800)
Ambler | Change Station
CLOSE
Current Station
Airport
Location: Ambler,
Elevation: 289 ft
Nearby Weather Stations

Elev 289 ft 67.11 °N, 157.86 °W | Updated 14 minutes ago

Clear
Clear
36 °F
Feels Like 32 °F
N
5
Wind Variable Wind from North

Today
High -- | Low -- °F
--% Chance of Precip.
Yesterday
High -- | Low -- °F
Precip. -- in
8:10 AM 8:36 PM
Waning Crescent, 6% visible
Pressure 29.77 in
Visibility 10.0 miles
Clouds Clear
Windchill 32 °F
Dew Point 23 °F
Humidity 60%
Rainfall 0.00 in
Snow Depth 1 in , 0 in , 2 in
UV 0 out of 12
Pollen Not available.
Air Quality Not available.
Flu Activity Not available.
METAR PAFM 211756Z AUTO 35004KT 10SM CLR 02/M05 A2977 RMK AO1 10020 21010 52007

More Conditions Fewer Conditions

Pressure 29.77 in
Visibility 10.0 miles
Clouds Clear
Windchill 32 °F
Dew Point 23 °F
Humidity 60%
Rainfall 0.00 in
Snow Depth 1 in , 0 in , 2 in
UV 0 out of 12
Pollen Not available.
Air Quality Not available.
Flu Activity Not available.
METAR PAFM 211756Z AUTO 35004KT 10SM CLR 02/M05 A2977 RMK AO1 10020 21010 52007

More Conditions Fewer Conditions

10-Day Weather Forecast

Almanac

Astronomy

Sep. 21, 2014 Rise Set
Actual Time 8:10 AM AKDT 8:36 PM AKDT
Civil Twilight 7:16 AM AKDT 9:29 PM AKDT
Nautical Twilight 6:08 AM AKDT 10:37 PM AKDT
Astronomical Twilight 4:44 AM AKDT 11:59 PM AKDT
Moon 5:09 AM AKDT 7:49 PM AKDT
Length of Visible Light 14h 13m
Length of Day
12h 25m
Tomorrow will be 7m 22s shorter.
Waning Crescent, 6% of the Moon is Illuminated
Today
Waning Crescent
Sep 24
New
Oct 1
First Quarter
Oct 8
Full
Oct 15
Last Quarter

Today's Extremes

State Highs State Lows

Community

WunderPhotos

Upload Photos

1,755,213 photos uploaded!

WunderBlogs® & News

Nearby

Snow Depth

Station Depth Elevation
Munson Ridge 1 in 3100 ft
Grouse Creek Divide 0 in 700 ft
Turnagain Pass 2 in 1880 ft
Upper Tsaina River 0 in 1750 ft
Susitna Valley High 109 in 375 ft

Earthquake Activity

City Distance Mag. Time & Date
No recent earthquake activity has been reported nearby.
Minimum magnitude displayed is 2.5.

Coastal Water Temperatures

Place Temperature
No Stations Reporting

Nearby Weather Stations